| time (UTC) | temp F | wind direction | speed knots | gust knots | rain 1hr in | rain 24hr in | rain mn in | humidity % | barometer mb |
| 20260906144723 | 78 | 213 | 0.0 | 1.7 | 0.00 | 0.98 | 0.91 | 94 | 1012.2 |
| 20260906144222 | 78 | 152 | 0.0 | 0.0 | 0.00 | 0.98 | 0.91 | 97 | 1012.1 |
| 20260906144158 | 78 | 152 | 0.0 | 1.7 | 0.00 | 0.98 | 0.91 | 97 | 1012.1 |
| 20260906143723 | 77 | 196 | 0.0 | 2.6 | 0.00 | 0.98 | 0.91 | 100 | 1012.1 |
| 20260906143231 | 77 | 210 | 0.0 | 1.7 | 0.00 | 0.98 | 0.91 | 100 | 1012.1 |
| 20260906143223 | 77 | 253 | 0.9 | 0.9 | 0.00 | 0.98 | 0.91 | 100 | 1012.1 |
| 20260906143159 | 77 | 210 | 0.0 | 1.7 | 0.00 | 0.98 | 0.91 | 100 | 1012.1 |
| 20260906142722 | 77 | 208 | 0.0 | 0.0 | 0.00 | 0.98 | 0.91 | 100 | 1012.5 |
| 20260906142223 | 77 | 137 | 0.0 | 0.0 | 0.00 | 0.98 | 0.91 | 100 | 1012.5 |
| 20260906142155 | 77 | 179 | 0.0 | 0.0 | 0.00 | 0.98 | 0.91 | 100 | 1012.5 |
| 20260906141723 | 76 | 209 | 0.0 | 0.9 | 0.00 | 0.98 | 0.91 | 100 | 1012.5 |
| 20260906141222 | 76 | 246 | 0.0 | 0.0 | 0.00 | 0.98 | 0.91 | 100 | 1012.2 |
| 20260906141201 | 76 | 244 | 0.0 | 0.0 | 0.00 | 0.98 | 0.91 | 100 | 1012.2 |
| 20260906140722 | 75 | 212 | 0.0 | 0.0 | 0.00 | 0.98 | 0.91 | 100 | 1012.2 |
| 20260906140224 | 75 | 155 | 0.0 | 0.0 | 0.00 | 0.98 | 0.91 | 100 | 1012.2 |
| 20260906140202 | 75 | 155 | 0.0 | 0.9 | 0.00 | 0.98 | 0.91 | 100 | 1012.2 |
| 20260906135722 | 75 | 193 | 0.0 | 0.0 | 0.00 | 0.98 | 0.91 | 100 | 1012.3 |
| 20260906135240 | 75 | 217 | 1.7 | 1.7 | 0.00 | 0.98 | 0.91 | 100 | 1012.3 |
| 20260906135223 | 75 | 165 | 0.0 | 1.7 | 0.00 | 0.98 | 0.91 | 100 | 1012.3 |
| 20260906135157 | 75 | 217 | 1.7 | 1.7 | 0.00 | 0.98 | 0.91 | 100 | 1012.3 |
| 20260906134722 | 75 | 161 | 0.9 | 1.7 | 0.00 | 0.98 | 0.91 | 100 | 1012.3 |
| 20260906134223 | 74 | 219 | 0.0 | 0.0 | 0.00 | 0.98 | 0.91 | 100 | 1012.4 |
| 20260906134157 | 74 | 216 | 0.0 | 1.7 | 0.00 | 0.98 | 0.91 | 100 | 1012.4 |
| 20260906133723 | 74 | 216 | 0.0 | 0.9 | 0.00 | 0.98 | 0.91 | 100 | 1012.4 |
| 20260906133617 | 74 | 212 | 0.0 | 0.0 | 0.00 | 0.98 | 0.91 | 100 | 1012.4 |
| 20260906133222 | 74 | 151 | 0.0 | 0.0 | 0.00 | 0.98 | 0.91 | 100 | 1012.4 |
| 20260906133201 | 74 | 212 | 0.0 | 0.0 | 0.00 | 0.98 | 0.91 | 100 | 1012.4 |
| 20260906132723 | 74 | 158 | 0.0 | 0.0 | 0.00 | 0.98 | 0.91 | 100 | 1012.3 |
| 20260906132223 | 74 | 150 | 1.7 | 2.6 | 0.00 | 0.98 | 0.91 | 100 | 1012.3 |
| 20260906132156 | 74 | 171 | 0.9 | 3.5 | 0.00 | 0.98 | 0.91 | 100 | 1012.3 |
| 20260906131723 | 73 | 143 | 0.0 | 0.9 | 0.00 | 0.98 | 0.91 | 100 | 1012.3 |
| 20260906131230 | 73 | 306 | 0.0 | 0.0 | 0.00 | 0.98 | 0.91 | 100 | 1012.3 |
| 20260906131224 | 73 | 306 | 0.0 | 0.0 | 0.00 | 0.98 | 0.91 | 100 | 1012.3 |
| 20260906131157 | 73 | 306 | 0.0 | 0.0 | 0.00 | 0.98 | 0.91 | 100 | 1012.3 |
| 20260906130722 | 72 | 346 | 0.0 | 0.9 | 0.00 | 0.98 | 0.91 | 100 | 1012.3 |
| 20260906130223 | 72 | 0 | 0.9 | 2.6 | 0.00 | 0.98 | 0.91 | 100 | 1012.3 |
| 20260906130157 | 72 | 11 | 0.9 | 2.6 | 0.00 | 0.98 | 0.91 | 100 | 1012.3 |
| 20260906125723 | 72 | 7 | 0.0 | 3.5 | 0.00 | 0.98 | 0.91 | 100 | 1012.2 |
| 20260906125223 | 72 | 0 | 4.3 | 5.2 | 0.00 | 0.98 | 0.91 | 100 | 1012.2 |
| 20260906125157 | 72 | 346 | 2.6 | 2.6 | 0.00 | 0.98 | 0.91 | 100 | 1012.2 |
| 20260906124724 | 72 | 0 | 3.5 | 3.5 | 0.00 | 0.98 | 0.91 | 100 | 1012.2 |
| 20260906124223 | 72 | 346 | 0.9 | 1.7 | 0.00 | 0.98 | 0.91 | 100 | 1012.0 |
| 20260906124158 | 72 | 352 | 0.0 | 2.6 | 0.00 | 0.98 | 0.91 | 100 | 1012.0 |
| 20260906123723 | 72 | 322 | 0.9 | 0.9 | 0.00 | 0.98 | 0.91 | 100 | 1012.0 |
| 20260906123224 | 72 | 342 | 0.9 | 0.9 | 0.00 | 0.98 | 0.91 | 100 | 1012.0 |
| 20260906123157 | 72 | 198 | 0.0 | 0.0 | 0.00 | 0.98 | 0.91 | 100 | 1012.0 |
| 20260906122722 | 72 | 38 | 0.0 | 0.0 | 0.00 | 0.98 | 0.91 | 100 | 1011.6 |
| 20260906122223 | 72 | 102 | 0.0 | 0.0 | 0.00 | 0.98 | 0.91 | 100 | 1011.6 |
| 20260906122157 | 72 | 102 | 0.0 | 0.0 | 0.00 | 0.98 | 0.91 | 100 | 1011.6 |
| 20260906121723 | 72 | 352 | 4.3 | 4.3 | 0.00 | 0.98 | 0.91 | 100 | 1011.6 |
| 20260906121233 | 71 | 1 | 3.5 | 3.5 | 0.00 | 0.98 | 0.91 | 100 | 1011.4 |
| 20260906121223 | 71 | 352 | 8.7 | 8.7 | 0.00 | 0.98 | 0.91 | 100 | 1011.4 |
| 20260906121200 | 71 | 1 | 3.5 | 3.5 | 0.00 | 0.98 | 0.91 | 100 | 1011.4 |
| 20260906120724 | 71 | 350 | 7.8 | 7.8 | 0.00 | 0.98 | 0.91 | 100 | 1011.4 |
| 20260906120222 | 71 | 326 | 2.6 | 7.8 | 0.00 | 0.98 | 0.91 | 100 | 1011.4 |
| 20260906120201 | 71 | 1 | 2.6 | 4.3 | 0.00 | 0.98 | 0.91 | 100 | 1011.4 |
| 20260906115722 | 71 | 313 | 4.3 | 6.1 | 0.00 | 0.98 | 0.91 | 100 | 1011.4 |
| 20260906115404 | 71 | 0 | 3.5 | 3.5 | 0.00 | 0.98 | 0.91 | 100 | 1011.4 |
| 20260906115246 | 71 | 0 | 3.5 | 3.5 | 0.00 | 0.98 | 0.91 | 100 | 1011.4 |
| 20260906115222 | 71 | 356 | 4.3 | 4.3 | 0.00 | 0.98 | 0.91 | 100 | 1011.4 |
| 20260906115209 | 71 | 0 | 3.5 | 3.5 | 0.00 | 0.98 | 0.91 | 100 | 1011.4 |
| 20260906114723 | 71 | 330 | 1.7 | 6.1 | 0.00 | 0.98 | 0.91 | 100 | 1011.4 |
| 20260906114222 | 71 | 350 | 2.6 | 3.5 | 0.00 | 0.98 | 0.91 | 100 | 1011.5 |
| 20260906114157 | 71 | 0 | 2.6 | 4.3 | 0.00 | 0.98 | 0.91 | 100 | 1011.5 |
| 20260906113722 | 71 | 354 | 1.7 | 1.7 | 0.00 | 0.98 | 0.91 | 100 | 1011.5 |
| 20260906113223 | 71 | 350 | 3.5 | 5.2 | 0.00 | 0.98 | 0.91 | 100 | 1011.5 |
| 20260906113156 | 71 | 343 | 0.9 | 4.3 | 0.00 | 0.98 | 0.91 | 100 | 1011.5 |
| 20260906112722 | 71 | 272 | 3.5 | 6.1 | 0.01 | 0.98 | 0.91 | 100 | 1011.4 |
| 20260906112223 | 71 | 323 | 4.3 | 5.2 | 0.01 | 0.98 | 0.91 | 100 | 1011.4 |
| 20260906112157 | 71 | 0 | 3.5 | 4.3 | 0.01 | 0.98 | 0.91 | 100 | 1011.4 |
| 20260906111722 | 71 | 1 | 1.7 | 2.6 | 0.01 | 0.98 | 0.91 | 100 | 1011.4 |
| 20260906111223 | 71 | 0 | 0.9 | 1.7 | 0.01 | 0.98 | 0.91 | 100 | 1011.4 |
| 20260906111208 | 71 | 0 | 1.7 | 3.5 | 0.01 | 0.98 | 0.91 | 100 | 1011.4 |
| 20260906110723 | 71 | 337 | 1.7 | 3.5 | 0.02 | 0.98 | 0.91 | 100 | 1011.4 |
| 20260906110222 | 71 | 113 | 0.0 | 0.0 | 0.02 | 0.98 | 0.91 | 100 | 1011.4 |
| 20260906110157 | 71 | 113 | 0.0 | 0.0 | 0.02 | 0.98 | 0.91 | 100 | 1011.4 |
| 20260906105724 | 71 | 113 | 0.0 | 0.0 | 0.04 | 0.98 | 0.91 | 100 | 1011.4 |
| 20260906105222 | 71 | 113 | 0.0 | 0.0 | 0.04 | 0.98 | 0.91 | 100 | 1011.4 |
| 20260906105158 | 71 | 113 | 0.0 | 0.0 | 0.04 | 0.98 | 0.91 | 100 | 1011.4 |
| 20260906104723 | 71 | 92 | 0.0 | 0.9 | 0.06 | 0.98 | 0.91 | 100 | 1011.4 |
| 20260906104223 | 71 | 103 | 0.0 | 1.7 | 0.06 | 0.98 | 0.91 | 100 | 1011.5 |
| 20260906104157 | 71 | 88 | 0.0 | 1.7 | 0.06 | 0.98 | 0.91 | 100 | 1011.5 |
| 20260906103723 | 71 | 85 | 0.9 | 0.9 | 0.11 | 0.98 | 0.91 | 100 | 1011.5 |
| 20260906103223 | 71 | 61 | 2.6 | 2.6 | 0.11 | 0.98 | 0.91 | 100 | 1011.5 |
| 20260906103156 | 71 | 89 | 1.7 | 1.7 | 0.11 | 0.98 | 0.91 | 100 | 1011.5 |
| 20260906102724 | 71 | 116 | 0.0 | 0.0 | 0.19 | 0.97 | 0.90 | 100 | 1011.6 |
| 20260906102222 | 71 | 150 | 0.0 | 0.0 | 0.19 | 0.97 | 0.90 | 100 | 1011.6 |
| 20260906102157 | 71 | 150 | 0.0 | 0.0 | 0.19 | 0.97 | 0.90 | 100 | 1011.6 |
| 20260906101723 | 71 | 66 | 0.0 | 0.0 | 0.45 | 0.97 | 0.90 | 100 | 1011.6 |
| 20260906101223 | 71 | 66 | 0.0 | 0.0 | 0.45 | 0.97 | 0.90 | 100 | 1012.1 |
| 20260906101201 | 71 | 66 | 0.0 | 0.0 | 0.45 | 0.97 | 0.90 | 100 | 1012.1 |
| 20260906100722 | 71 | 58 | 1.7 | 2.6 | 0.53 | 0.97 | 0.90 | 100 | 1012.1 |
| 20260906100223 | 72 | 48 | 0.9 | 2.6 | 0.52 | 0.96 | 0.89 | 100 | 1012.1 |
| 20260906100159 | 72 | 31 | 1.7 | 1.7 | 0.52 | 0.96 | 0.89 | 100 | 1012.1 |
| 20260906095724 | 72 | 52 | 3.5 | 3.5 | 0.53 | 0.96 | 0.89 | 100 | 1012.9 |
| 20260906095222 | 72 | 31 | 2.6 | 2.6 | 0.51 | 0.94 | 0.87 | 100 | 1012.9 |
| 20260906095157 | 72 | 34 | 0.9 | 1.7 | 0.51 | 0.94 | 0.87 | 100 | 1012.9 |
| 20260906094723 | 72 | 13 | 4.3 | 4.3 | 0.50 | 0.93 | 0.86 | 100 | 1012.9 |
| 20260906094224 | 72 | 54 | 4.3 | 5.2 | 0.49 | 0.92 | 0.85 | 100 | 1013.1 |
| 20260906094156 | 72 | 49 | 0.9 | 3.5 | 0.49 | 0.92 | 0.85 | 100 | 1013.1 |
| 20260906093722 | 72 | 51 | 4.3 | 4.3 | 0.48 | 0.91 | 0.84 | 100 | 1013.1 |
| 20260906093223 | 72 | 66 | 6.1 | 6.1 | 0.44 | 0.87 | 0.80 | 100 | 1013.1 |
| 20260906093156 | 72 | 76 | 4.3 | 4.3 | 0.44 | 0.87 | 0.80 | 100 | 1013.1 |
| 20260906092724 | 72 | 312 | 0.0 | 2.6 | 0.42 | 0.85 | 0.78 | 100 | 1012.9 |
| 20260906092222 | 72 | 90 | 2.6 | 2.6 | 0.38 | 0.81 | 0.74 | 100 | 1012.9 |
| 20260906092157 | 72 | 0 | 0.9 | 4.3 | 0.35 | 0.78 | 0.71 | 100 | 1012.9 |
| 20260906091723 | 72 | 306 | 1.7 | 3.5 | 0.28 | 0.71 | 0.64 | 100 | 1012.9 |
| 20260906091224 | 72 | 8 | 5.2 | 8.7 | 0.15 | 0.58 | 0.51 | 100 | 1012.6 |
| 20260906091156 | 72 | 40 | 4.3 | 9.6 | 0.12 | 0.55 | 0.48 | 100 | 1012.6 |
| 20260906090723 | 72 | 342 | 6.1 | 6.1 | 0.01 | 0.44 | 0.37 | 100 | 1012.6 |
| 20260906090224 | 72 | 0 | 6.1 | 6.1 | 0.01 | 0.44 | 0.37 | 100 | 1012.6 |
| 20260906090157 | 72 | 0 | 3.5 | 6.1 | 0.01 | 0.44 | 0.37 | 100 | 1012.6 |
| 20260906085722 | 71 | 350 | 0.0 | 0.0 | 0.01 | 0.44 | 0.37 | 100 | 1012.1 |
| 20260906085223 | 71 | 323 | 0.0 | 0.0 | 0.00 | 0.43 | 0.36 | 100 | 1012.1 |
| 20260906085156 | 71 | 284 | 0.0 | 0.0 | 0.00 | 0.43 | 0.36 | 100 | 1012.1 |
| 20260906084724 | 71 | 284 | 0.0 | 0.0 | 0.00 | 0.43 | 0.36 | 100 | 1012.1 |
| 20260906084222 | 71 | 328 | 0.0 | 0.0 | 0.00 | 0.43 | 0.36 | 100 | 1012.0 |
| 20260906084157 | 71 | 328 | 0.0 | 0.0 | 0.00 | 0.43 | 0.36 | 100 | 1012.0 |
| 20260906083723 | 71 | 356 | 0.0 | 0.0 | 0.00 | 0.43 | 0.36 | 100 | 1012.0 |
| 20260906083224 | 71 | 340 | 0.0 | 0.9 | 0.00 | 0.43 | 0.36 | 100 | 1012.0 |
| 20260906083159 | 71 | 340 | 0.9 | 0.9 | 0.00 | 0.43 | 0.36 | 100 | 1012.0 |
| 20260906082722 | 71 | 316 | 0.0 | 0.0 | 0.01 | 0.43 | 0.36 | 100 | 1012.1 |
| 20260906082223 | 71 | 316 | 0.0 | 1.7 | 0.01 | 0.43 | 0.36 | 100 | 1012.1 |
| 20260906082156 | 71 | 322 | 0.0 | 0.9 | 0.01 | 0.43 | 0.36 | 100 | 1012.1 |
| 20260906081724 | 71 | 0 | 4.3 | 4.3 | 0.09 | 0.43 | 0.36 | 100 | 1012.1 |
| 20260906081223 | 71 | 306 | 0.0 | 0.0 | 0.09 | 0.43 | 0.36 | 100 | 1011.6 |
| 20260906081157 | 71 | 306 | 0.0 | 0.0 | 0.09 | 0.43 | 0.36 | 100 | 1011.6 |
| 20260906080724 | 71 | 318 | 0.9 | 1.7 | 0.23 | 0.43 | 0.36 | 100 | 1011.6 |
| 20260906080222 | 71 | 294 | 0.0 | 0.0 | 0.23 | 0.43 | 0.36 | 100 | 1011.6 |
| 20260906080155 | 71 | 294 | 0.0 | 0.0 | 0.23 | 0.43 | 0.36 | 100 | 1011.6 |
| 20260906075723 | 71 | 243 | 0.9 | 0.9 | 0.23 | 0.43 | 0.36 | 100 | 1011.5 |
| 20260906075226 | 71 | 217 | 0.0 | 0.0 | 0.23 | 0.43 | 0.36 | 100 | 1011.5 |
| 20260906075223 | 71 | 217 | 0.0 | 0.0 | 0.23 | 0.43 | 0.36 | 100 | 1011.5 |
| 20260906075155 | 71 | 217 | 0.0 | 0.0 | 0.23 | 0.43 | 0.36 | 100 | 1011.5 |
| 20260906074723 | 71 | 131 | 0.0 | 0.0 | 0.23 | 0.43 | 0.36 | 100 | 1011.5 |
| 20260906074222 | 71 | 219 | 0.9 | 0.9 | 0.23 | 0.43 | 0.36 | 100 | 1011.5 |
| 20260906074201 | 71 | 281 | 0.0 | 0.0 | 0.23 | 0.43 | 0.36 | 100 | 1011.5 |
| 20260906073723 | 71 | 281 | 0.0 | 0.0 | 0.23 | 0.43 | 0.36 | 100 | 1011.5 |
| 20260906073223 | 71 | 281 | 0.0 | 0.9 | 0.23 | 0.43 | 0.36 | 100 | 1011.5 |
| 20260906073202 | 71 | 281 | 0.0 | 0.9 | 0.23 | 0.43 | 0.36 | 100 | 1011.5 |
| 20260906072722 | 71 | 326 | 0.0 | 0.9 | 0.23 | 0.43 | 0.36 | 100 | 1011.4 |
| 20260906072223 | 71 | 17 | 1.7 | 2.6 | 0.22 | 0.42 | 0.35 | 100 | 1011.4 |
| 20260906072156 | 71 | 0 | 2.6 | 4.3 | 0.22 | 0.42 | 0.35 | 100 | 1011.4 |
| 20260906071723 | 71 | 301 | 0.9 | 1.7 | 0.21 | 0.41 | 0.34 | 100 | 1011.4 |
| 20260906071222 | 71 | 337 | 1.7 | 2.6 | 0.14 | 0.34 | 0.27 | 100 | 1011.7 |
| 20260906071157 | 71 | 299 | 1.7 | 1.7 | 0.14 | 0.34 | 0.27 | 100 | 1011.7 |
| 20260906070723 | 71 | 289 | 1.7 | 4.3 | 0.11 | 0.31 | 0.24 | 100 | 1011.7 |
| 20260906070223 | 71 | 0 | 2.6 | 5.2 | 0.01 | 0.21 | 0.14 | 100 | 1011.7 |
| 20260906070156 | 71 | 343 | 2.6 | 2.6 | 0.00 | 0.20 | 0.13 | 100 | 1011.7 |
| 20260906065722 | 71 | 0 | 2.6 | 3.5 | 0.00 | 0.20 | 0.13 | 100 | 1011.7 |
| 20260906065226 | 71 | 0 | 2.6 | 4.3 | 0.00 | 0.20 | 0.13 | 100 | 1011.7 |
| 20260906065223 | 71 | 0 | 3.5 | 4.3 | 0.00 | 0.20 | 0.13 | 100 | 1011.7 |
| 20260906065155 | 71 | 0 | 2.6 | 4.3 | 0.00 | 0.20 | 0.13 | 100 | 1011.7 |
| 20260906064723 | 71 | 3 | 1.7 | 1.7 | 0.00 | 0.20 | 0.13 | 100 | 1011.7 |
| 20260906064228 | 71 | 78 | 1.7 | 1.7 | 0.00 | 0.20 | 0.13 | 100 | 1011.4 |
| 20260906064222 | 71 | 78 | 0.0 | 1.7 | 0.00 | 0.20 | 0.13 | 100 | 1011.4 |
| 20260906064157 | 71 | 78 | 1.7 | 1.7 | 0.00 | 0.20 | 0.13 | 100 | 1011.4 |
| 20260906063722 | 71 | 130 | 0.0 | 0.0 | 0.00 | 0.20 | 0.13 | 100 | 1011.4 |
| 20260906063222 | 71 | 106 | 0.0 | 0.0 | 0.00 | 0.20 | 0.13 | 100 | 1011.4 |
| 20260906063159 | 71 | 106 | 0.0 | 0.0 | 0.00 | 0.20 | 0.13 | 100 | 1011.4 |
| 20260906062723 | 71 | 107 | 0.9 | 1.7 | 0.02 | 0.20 | 0.13 | 100 | 1011.1 |
| 20260906062223 | 71 | 294 | 0.0 | 0.0 | 0.02 | 0.20 | 0.13 | 100 | 1011.1 |
| 20260906062159 | 71 | 294 | 0.0 | 0.9 | 0.02 | 0.20 | 0.13 | 100 | 1011.1 |
| 20260906061722 | 71 | 329 | 0.9 | 2.6 | 0.06 | 0.20 | 0.13 | 100 | 1011.1 |
| 20260906061223 | 72 | 333 | 2.6 | 3.5 | 0.06 | 0.20 | 0.13 | 100 | 1011.0 |
| 20260906061156 | 72 | 342 | 4.3 | 5.2 | 0.06 | 0.20 | 0.13 | 100 | 1011.0 |
| 20260906060723 | 72 | 343 | 3.5 | 3.5 | 0.13 | 0.20 | 0.13 | 100 | 1011.0 |
| 20260906060223 | 72 | 354 | 7.8 | 7.8 | 0.13 | 0.20 | 0.13 | 99 | 1011.0 |
| 20260906060156 | 72 | 311 | 1.7 | 3.5 | 0.13 | 0.20 | 0.13 | 99 | 1011.0 |
| 20260906055722 | 72 | 6 | 4.3 | 4.3 | 0.20 | 0.20 | 0.13 | 97 | 1011.0 |
| 20260906055222 | 72 | 339 | 2.6 | 2.6 | 0.20 | 0.20 | 0.13 | 97 | 1011.0 |
| 20260906055156 | 72 | 346 | 1.7 | 1.7 | 0.20 | 0.20 | 0.13 | 97 | 1011.0 |
| 20260906054723 | 72 | 311 | 3.5 | 3.5 | 0.20 | 0.20 | 0.13 | 97 | 1011.0 |
| 20260906054224 | 72 | 256 | 0.9 | 0.9 | 0.20 | 0.20 | 0.13 | 99 | 1011.1 |
| 20260906054205 | 72 | 256 | 0.9 | 2.6 | 0.20 | 0.20 | 0.13 | 99 | 1011.1 |
| 20260906053722 | 72 | 308 | 6.1 | 6.1 | 0.20 | 0.20 | 0.13 | 99 | 1011.1 |
| 20260906053222 | 72 | 319 | 2.6 | 2.6 | 0.20 | 0.20 | 0.13 | 99 | 1011.1 |
| 20260906053158 | 72 | 319 | 2.6 | 2.6 | 0.20 | 0.20 | 0.13 | 99 | 1011.1 |
| 20260906052723 | 72 | 274 | 4.3 | 7.8 | 0.20 | 0.20 | 0.13 | 99 | 1012.1 |
| 20260906052659 | 71 | 295 | 3.5 | 8.7 | 0.18 | 0.18 | 0.11 | 97 | 1012.1 |
| 20260906052223 | 71 | 272 | 3.5 | 5.2 | 0.19 | 0.19 | 0.12 | 97 | 1012.1 |
| 20260906052156 | 71 | 295 | 3.5 | 8.7 | 0.18 | 0.18 | 0.11 | 97 | 1012.1 |
| 20260906051722 | 72 | 325 | 2.6 | 9.6 | 0.17 | 0.17 | 0.10 | 93 | 1012.1 |
| 20260906051223 | 72 | 309 | 8.7 | 9.6 | 0.15 | 0.15 | 0.08 | 90 | 1012.5 |
| 20260906051155 | 73 | 320 | 6.1 | 6.1 | 0.15 | 0.15 | 0.08 | 90 | 1012.5 |
| 20260906050723 | 74 | 350 | 7.0 | 8.7 | 0.12 | 0.12 | 0.05 | 88 | 1012.5 |
| 20260906050223 | 76 | 354 | 1.7 | 12.2 | 0.08 | 0.08 | 0.01 | 83 | 1012.5 |
| 20260906050156 | 76 | 0 | 5.2 | 8.7 | 0.07 | 0.07 | 0.00 | 83 | 1012.5 |
| 20260906045724 | 77 | 0 | 7.0 | 8.7 | 0.02 | 0.02 | 0.02 | 80 | 1012.8 |
| 20260906045222 | 77 | 54 | 3.5 | 9.6 | 0.00 | 0.00 | 0.00 | 77 | 1012.8 |
| 20260906045158 | 77 | 14 | 5.2 | 12.2 | 0.00 | 0.00 | 0.00 | 77 | 1012.8 |
| 20260906044723 | 78 | 353 | 1.7 | 6.1 | 0.00 | 0.00 | 0.00 | 77 | 1012.8 |
| 20260906044224 | 79 | 38 | 7.8 | 10.4 | 0.00 | 0.00 | 0.00 | 97 | 1012.5 |
| 20260906044158 | 79 | 6 | 10.4 | 15.6 | 0.00 | 0.00 | 0.00 | 97 | 1012.5 |
| 20260906043722 | 79 | 73 | 5.2 | 7.8 | 0.00 | 0.00 | 0.00 | 97 | 1012.5 |
| 20260906043222 | 79 | 72 | 2.6 | 4.3 | 0.00 | 0.00 | 0.00 | 97 | 1012.5 |
| 20260906043156 | 79 | 113 | 2.6 | 4.3 | 0.00 | 0.00 | 0.00 | 97 | 1012.5 |
| 20260906042723 | 80 | 61 | 2.6 | 3.5 | 0.00 | 0.00 | 0.00 | 97 | 1011.9 |
| 20260906042223 | 80 | 99 | 1.7 | 2.6 | 0.00 | 0.00 | 0.00 | 96 | 1011.9 |
| 20260906042157 | 80 | 106 | 1.7 | 1.7 | 0.00 | 0.00 | 0.00 | 96 | 1011.9 |
| 20260906041724 | 80 | 152 | 0.9 | 0.9 | 0.00 | 0.00 | 0.00 | 96 | 1011.9 |
| 20260906041223 | 80 | 128 | 0.0 | 0.9 | 0.00 | 0.00 | 0.00 | 96 | 1012.0 |
| 20260906041157 | 80 | 130 | 0.9 | 2.6 | 0.00 | 0.00 | 0.00 | 96 | 1012.0 |
| 20260906040723 | 80 | 151 | 0.9 | 2.6 | 0.00 | 0.00 | 0.00 | 95 | 1012.0 |
| 20260906040224 | 80 | 165 | 1.7 | 2.6 | 0.00 | 0.00 | 0.00 | 95 | 1012.0 |
| 20260906040156 | 80 | 114 | 1.7 | 2.6 | 0.00 | 0.00 | 0.00 | 95 | 1012.0 |
| 20260906035723 | 80 | 158 | 0.0 | 0.9 | 0.00 | 0.00 | 0.00 | 95 | 1012.1 |
| 20260906035223 | 80 | 162 | 0.9 | 2.6 | 0.00 | 0.00 | 0.00 | 95 | 1012.1 |
| 20260906035158 | 80 | 106 | 0.9 | 2.6 | 0.00 | 0.00 | 0.00 | 95 | 1012.1 |
| 20260906034724 | 80 | 151 | 2.6 | 2.6 | 0.00 | 0.00 | 0.00 | 94 | 1012.1 |
| 20260906034222 | 80 | 161 | 0.9 | 0.9 | 0.00 | 0.00 | 0.00 | 93 | 1011.8 |
| 20260906034159 | 80 | 145 | 0.0 | 0.9 | 0.00 | 0.00 | 0.00 | 93 | 1011.8 |
| 20260906033723 | 80 | 96 | 0.0 | 0.0 | 0.00 | 0.00 | 0.00 | 92 | 1011.8 |
| 20260906033224 | 80 | 151 | 1.7 | 1.7 | 0.00 | 0.00 | 0.00 | 92 | 1011.8 |
| 20260906033203 | 80 | 161 | 0.0 | 1.7 | 0.00 | 0.00 | 0.00 | 91 | 1011.8 |
| 20260906032722 | 81 | 147 | 0.0 | 0.9 | 0.00 | 0.00 | 0.00 | 91 | 1011.8 |
| 20260906032223 | 81 | 102 | 0.9 | 2.6 | 0.00 | 0.00 | 0.00 | 91 | 1011.8 |
| 20260906032156 | 81 | 93 | 0.9 | 3.5 | 0.00 | 0.00 | 0.00 | 91 | 1011.8 |
| 20260906031722 | 81 | 114 | 0.0 | 0.0 | 0.00 | 0.00 | 0.00 | 91 | 1011.8 |
| 20260906031223 | 81 | 69 | 0.9 | 0.9 | 0.00 | 0.00 | 0.00 | 90 | 1011.3 |
| 20260906031156 | 81 | 78 | 0.9 | 1.7 | 0.00 | 0.00 | 0.00 | 90 | 1011.3 |
| 20260906030724 | 81 | 71 | 1.7 | 1.7 | 0.00 | 0.00 | 0.00 | 90 | 1011.3 |
| 20260906030222 | 81 | 188 | 0.0 | 0.0 | 0.00 | 0.00 | 0.00 | 90 | 1011.3 |
| 20260906030155 | 81 | 188 | 0.0 | 0.0 | 0.00 | 0.00 | 0.00 | 90 | 1011.3 |
| 20260906025723 | 81 | 182 | 0.0 | 0.0 | 0.00 | 0.00 | 0.00 | 90 | 1011.1 |
| 20260906025321 | 81 | 208 | 0.0 | 0.0 | 0.00 | 0.00 | 0.00 | 89 | 1011.1 |
| 20260906025224 | 81 | 155 | 0.0 | 0.0 | 0.00 | 0.00 | 0.00 | 89 | 1011.1 |
| 20260906025157 | 81 | 208 | 0.0 | 0.0 | 0.00 | 0.00 | 0.00 | 89 | 1011.1 |
| 20260906024722 | 81 | 208 | 0.0 | 0.0 | 0.00 | 0.00 | 0.00 | 89 | 1011.1 |
| 20260906024223 | 81 | 208 | 0.0 | 0.0 | 0.00 | 0.00 | 0.00 | 89 | 1011.0 |
| 20260906024157 | 81 | 208 | 0.0 | 0.0 | 0.00 | 0.00 | 0.00 | 89 | 1011.0 |
| 20260906023724 | 82 | 223 | 0.0 | 0.0 | 0.00 | 0.00 | 0.00 | 88 | 1011.0 |
| 20260906023222 | 82 | 198 | 0.0 | 0.0 | 0.00 | 0.00 | 0.00 | 88 | 1011.0 |
| 20260906023158 | 82 | 206 | 0.0 | 0.0 | 0.00 | 0.00 | 0.00 | 87 | 1011.0 |
| 20260906022722 | 82 | 186 | 0.0 | 0.0 | 0.00 | 0.00 | 0.00 | 87 | 1011.0 |
| 20260906022224 | 82 | 265 | 0.0 | 0.0 | 0.00 | 0.00 | 0.00 | 87 | 1011.0 |
| 20260906022156 | 82 | 265 | 0.0 | 0.0 | 0.00 | 0.00 | 0.00 | 87 | 1011.0 |
| 20260906021722 | 82 | 239 | 0.9 | 0.9 | 0.00 | 0.00 | 0.00 | 87 | 1011.0 |
| 20260906021223 | 82 | 232 | 0.9 | 0.9 | 0.00 | 0.00 | 0.00 | 87 | 1011.0 |
| 20260906021156 | 82 | 186 | 0.0 | 0.0 | 0.00 | 0.00 | 0.00 | 87 | 1011.0 |
| 20260906020723 | 83 | 237 | 0.0 | 1.7 | 0.00 | 0.00 | 0.00 | 86 | 1011.0 |
| 20260906020222 | 83 | 241 | 0.0 | 0.0 | 0.00 | 0.00 | 0.00 | 86 | 1011.0 |
| 20260906020157 | 83 | 241 | 0.0 | 0.9 | 0.00 | 0.00 | 0.00 | 86 | 1011.0 |
| 20260906015723 | 83 | 209 | 0.0 | 0.9 | 0.00 | 0.00 | 0.00 | 86 | 1010.8 |
| 20260906015223 | 83 | 216 | 0.0 | 1.7 | 0.00 | 0.00 | 0.00 | 85 | 1010.8 |
| 20260906015156 | 83 | 229 | 0.0 | 0.9 | 0.00 | 0.00 | 0.00 | 85 | 1010.8 |
| 20260906014723 | 83 | 212 | 0.0 | 0.0 | 0.00 | 0.00 | 0.00 | 85 | 1010.8 |
| 20260906014222 | 84 | 202 | 0.0 | 0.0 | 0.00 | 0.00 | 0.00 | 84 | 1010.4 |
| 20260906014157 | 84 | 202 | 0.0 | 0.0 | 0.00 | 0.00 | 0.00 | 84 | 1010.4 |
| 20260906013722 | 84 | 257 | 0.0 | 0.9 | 0.00 | 0.00 | 0.00 | 83 | 1010.4 |
| 20260906013223 | 84 | 219 | 0.0 | 0.9 | 0.00 | 0.00 | 0.00 | 82 | 1010.4 |
| 20260906013156 | 84 | 205 | 0.0 | 0.9 | 0.00 | 0.00 | 0.00 | 82 | 1010.4 |
| 20260906012723 | 84 | 265 | 1.7 | 1.7 | 0.00 | 0.00 | 0.00 | 82 | 1010.1 |
| 20260906012222 | 85 | 246 | 0.0 | 0.0 | 0.00 | 0.00 | 0.00 | 81 | 1010.1 |
| 20260906012157 | 85 | 240 | 0.0 | 0.9 | 0.00 | 0.00 | 0.00 | 81 | 1010.1 |
| 20260906011723 | 85 | 230 | 0.0 | 0.0 | 0.00 | 0.00 | 0.00 | 80 | 1010.1 |
| 20260906011251 | 85 | 241 | 1.7 | 1.7 | 0.00 | 0.00 | 0.00 | 79 | 1009.9 |
| 20260906011224 | 85 | 241 | 0.0 | 0.9 | 0.00 | 0.00 | 0.00 | 80 | 1009.9 |
| 20260906011157 | 85 | 241 | 1.7 | 1.7 | 0.00 | 0.00 | 0.00 | 79 | 1009.9 |
| 20260906010722 | 85 | 229 | 1.7 | 4.3 | 0.00 | 0.00 | 0.00 | 79 | 1009.9 |
| 20260906010223 | 85 | 232 | 0.9 | 2.6 | 0.00 | 0.00 | 0.00 | 77 | 1009.9 |
| 20260906010156 | 85 | 215 | 2.6 | 4.3 | 0.00 | 0.00 | 0.00 | 77 | 1009.9 |
| 20260906005724 | 86 | 193 | 3.5 | 3.5 | 0.00 | 0.00 | 0.00 | 76 | 1010.0 |
| 20260906005222 | 86 | 257 | 0.9 | 2.6 | 0.00 | 0.00 | 0.00 | 74 | 1010.0 |
| 20260906005157 | 86 | 261 | 2.6 | 2.6 | 0.00 | 0.00 | 0.00 | 71 | 1010.0 |
| 20260906004724 | 86 | 131 | 0.0 | 0.0 | 0.00 | 0.00 | 0.00 | 70 | 1010.0 |
| 20260906004222 | 86 | 131 | 0.0 | 0.0 | 0.00 | 0.00 | 0.00 | 70 | 1009.9 |
| 20260906004156 | 86 | 131 | 0.0 | 0.0 | 0.00 | 0.00 | 0.00 | 70 | 1009.9 |
| 20260906003724 | 86 | 131 | 0.0 | 0.0 | 0.00 | 0.00 | 0.00 | 70 | 1009.9 |
| 20260906003223 | 86 | 131 | 0.0 | 0.0 | 0.00 | 0.00 | 0.00 | 71 | 1009.9 |
| 20260906003155 | 86 | 131 | 0.0 | 0.0 | 0.00 | 0.00 | 0.00 | 71 | 1009.9 |
| 20260906002723 | 86 | 131 | 0.0 | 0.0 | 0.00 | 0.00 | 0.00 | 71 | 1009.8 |
| 20260906002223 | 87 | 131 | 0.0 | 0.0 | 0.00 | 0.00 | 0.00 | 71 | 1009.8 |
| 20260906002155 | 87 | 131 | 0.0 | 0.0 | 0.00 | 0.00 | 0.00 | 71 | 1009.8 |
| 20260906001723 | 87 | 131 | 0.0 | 0.0 | 0.00 | 0.00 | 0.00 | 71 | 1009.8 |
| 20260906001222 | 87 | 131 | 0.0 | 0.0 | 0.00 | 0.00 | 0.00 | 71 | 1009.9 |
| 20260906001157 | 87 | 131 | 0.0 | 0.0 | 0.00 | 0.00 | 0.00 | 71 | 1009.9 |
| 20260906000723 | 88 | 131 | 0.0 | 0.0 | 0.00 | 0.00 | 0.00 | 70 | 1009.9 |
| 20260906000223 | 88 | 131 | 0.0 | 0.0 | 0.00 | 0.00 | 0.00 | 70 | 1009.9 |
| 20260906000157 | 88 | 131 | 0.0 | 0.0 | 0.00 | 0.00 | 0.00 | 70 | 1009.9 |
| 20260905235914 | 92 | 236 | 0.0 | 0.9 | 0.00 | 0.29 | 0.01 | 66 | 1014.4 |
| 20260905235912 | 92 | 267 | 0.9 | 1.7 | 0.00 | 0.29 | 0.01 | 65 | 1014.4 |
| 20260905235909 | 93 | 223 | 1.7 | 1.7 | 0.00 | 0.29 | 0.01 | 64 | 1014.4 |
| 20260905235723 | 88 | 131 | 0.0 | 0.9 | 0.00 | 0.00 | 0.00 | 70 | 1010.0 |
| 20260905235223 | 89 | 131 | 0.9 | 0.9 | 0.00 | 0.00 | 0.00 | 70 | 1010.0 |
| 20260905235158 | 89 | 131 | 0.0 | 0.9 | 0.00 | 0.00 | 0.00 | 70 | 1010.0 |
| 20260905234722 | 89 | 131 | 0.0 | 0.9 | 0.00 | 0.00 | 0.00 | 70 | 1010.0 |
| 20260905234223 | 89 | 131 | 0.0 | 0.0 | 0.00 | 0.00 | 0.00 | 69 | 1009.9 |
| 20260905234156 | 90 | 131 | 0.0 | 0.0 | 0.00 | 0.00 | 0.00 | 69 | 1009.9 |
| 20260905233723 | 90 | 131 | 0.9 | 0.9 | 0.00 | 0.01 | 0.00 | 69 | 1009.9 |
| 20260905233222 | 90 | 131 | 0.0 | 0.0 | 0.00 | 0.01 | 0.00 | 69 | 1009.9 |
| 20260905233157 | 90 | 131 | 0.0 | 0.0 | 0.00 | 0.01 | 0.00 | 68 | 1009.9 |
| 20260905232724 | 90 | 131 | 0.0 | 0.0 | 0.00 | 0.01 | 0.00 | 68 | 1010.0 |
| 20260905232222 | 90 | 131 | 0.0 | 0.9 | 0.00 | 0.01 | 0.00 | 67 | 1010.0 |
| 20260905232159 | 90 | 131 | 0.0 | 0.0 | 0.00 | 0.01 | 0.00 | 67 | 1010.0 |
| 20260905231724 | 91 | 131 | 0.0 | 0.0 | 0.00 | 0.01 | 0.00 | 65 | 1010.0 |
| 20260905231223 | 91 | 131 | 0.0 | 0.0 | 0.00 | 0.01 | 0.00 | 65 | 1009.9 |
| 20260905231156 | 91 | 131 | 0.0 | 0.0 | 0.00 | 0.01 | 0.00 | 65 | 1009.9 |
| 20260905230724 | 91 | 131 | 0.0 | 0.9 | 0.00 | 0.01 | 0.00 | 65 | 1009.9 |
| 20260905230223 | 91 | 131 | 0.9 | 0.9 | 0.00 | 0.01 | 0.00 | 65 | 1009.9 |
| 20260905230155 | 91 | 131 | 0.9 | 1.7 | 0.00 | 0.01 | 0.00 | 64 | 1009.9 |
| 20260905225722 | 91 | 82 | 1.7 | 1.7 | 0.00 | 0.01 | 0.00 | 64 | 1009.9 |
| 20260905225224 | 91 | 113 | 0.0 | 0.9 | 0.00 | 0.01 | 0.00 | 64 | 1009.9 |
| 20260905225157 | 91 | 103 | 0.0 | 1.7 | 0.00 | 0.01 | 0.00 | 64 | 1009.9 |
| 20260905224722 | 92 | 96 | 1.7 | 1.7 | 0.00 | 0.01 | 0.00 | 63 | 1009.9 |
| 20260905224223 | 92 | 116 | 0.9 | 1.7 | 0.00 | 0.01 | 0.00 | 61 | 1009.9 |
| 20260905224156 | 92 | 109 | 0.0 | 1.7 | 0.00 | 0.01 | 0.00 | 61 | 1009.9 |
| 20260905223723 | 92 | 110 | 0.0 | 1.7 | 0.00 | 0.01 | 0.00 | 61 | 1009.9 |
| 20260905223222 | 92 | 136 | 0.9 | 1.7 | 0.00 | 0.01 | 0.00 | 64 | 1009.9 |
| 20260905223155 | 92 | 88 | 0.9 | 0.9 | 0.00 | 0.01 | 0.00 | 60 | 1009.9 |
| 20260905222723 | 92 | 88 | 0.9 | 0.9 | 0.00 | 0.01 | 0.00 | 62 | 1009.8 |
| 20260905222231 | 92 | 76 | 0.0 | 0.9 | 0.00 | 0.01 | 0.00 | 61 | 1009.8 |
| 20260905222223 | 92 | 76 | 0.0 | 0.9 | 0.00 | 0.01 | 0.00 | 61 | 1009.8 |
| 20260905222156 | 92 | 76 | 0.0 | 0.9 | 0.00 | 0.01 | 0.00 | 61 | 1009.8 |
| 20260905221723 | 92 | 76 | 0.0 | 0.0 | 0.00 | 0.01 | 0.00 | 59 | 1009.8 |
| 20260905221222 | 93 | 18 | 0.0 | 0.0 | 0.00 | 0.01 | 0.00 | 58 | 1009.7 |
| 20260905221157 | 93 | 18 | 0.0 | 0.0 | 0.00 | 0.01 | 0.00 | 58 | 1009.7 |
| 20260905220723 | 93 | 13 | 0.0 | 0.9 | 0.00 | 0.01 | 0.00 | 58 | 1009.7 |
| 20260905220223 | 93 | 64 | 0.9 | 2.6 | 0.00 | 0.01 | 0.00 | 60 | 1009.7 |
| 20260905220156 | 93 | 52 | 2.6 | 2.6 | 0.00 | 0.01 | 0.00 | 60 | 1009.7 |
| 20260905215722 | 93 | 76 | 0.0 | 1.7 | 0.00 | 0.01 | 0.00 | 58 | 1009.7 |
| 20260905215222 | 93 | 157 | 0.0 | 0.0 | 0.00 | 0.01 | 0.00 | 61 | 1009.7 |
| 20260905215155 | 93 | 157 | 0.0 | 0.0 | 0.00 | 0.01 | 0.00 | 61 | 1009.7 |
| 20260905214723 | 93 | 164 | 0.9 | 1.7 | 0.00 | 0.01 | 0.00 | 58 | 1009.7 |
| 20260905214222 | 94 | 55 | 0.0 | 0.9 | 0.00 | 0.01 | 0.00 | 58 | 1009.9 |
| 20260905214157 | 94 | 41 | 0.0 | 0.9 | 0.00 | 0.01 | 0.00 | 58 | 1009.9 |
| 20260905213722 | 94 | 93 | 0.9 | 2.6 | 0.00 | 0.01 | 0.00 | 56 | 1009.9 |
| 20260905213223 | 94 | 0 | 0.0 | 3.5 | 0.00 | 0.01 | 0.00 | 57 | 1009.9 |
| 20260905213156 | 94 | 31 | 3.5 | 3.5 | 0.00 | 0.01 | 0.00 | 56 | 1009.9 |
| 20260905212724 | 94 | 147 | 0.9 | 2.6 | 0.00 | 0.01 | 0.00 | 54 | 1010.1 |
| 20260905212223 | 94 | 49 | 0.9 | 1.7 | 0.00 | 0.01 | 0.00 | 57 | 1010.1 |
| 20260905212156 | 94 | 68 | 0.0 | 0.0 | 0.00 | 0.01 | 0.00 | 57 | 1010.1 |
| 20260905211722 | 94 | 68 | 0.0 | 0.9 | 0.00 | 0.01 | 0.00 | 55 | 1010.1 |
| 20260905211223 | 95 | 49 | 2.6 | 2.6 | 0.00 | 0.01 | 0.00 | 57 | 1010.2 |
| 20260905211156 | 95 | 64 | 2.6 | 3.5 | 0.00 | 0.01 | 0.00 | 54 | 1010.2 |
| 20260905210722 | 95 | 58 | 0.0 | 0.0 | 0.00 | 0.01 | 0.00 | 58 | 1010.2 |
| 20260905210222 | 95 | 16 | 0.9 | 0.9 | 0.00 | 0.01 | 0.00 | 58 | 1010.2 |
| 20260905210157 | 95 | 16 | 0.9 | 1.7 | 0.00 | 0.01 | 0.00 | 54 | 1010.2 |
| 20260905205723 | 96 | 119 | 0.9 | 0.9 | 0.00 | 0.01 | 0.00 | 53 | 1010.3 |
| 20260905205223 | 95 | 71 | 0.0 | 0.0 | 0.00 | 0.01 | 0.00 | 52 | 1010.3 |
| 20260905205156 | 95 | 71 | 0.0 | 0.0 | 0.00 | 0.01 | 0.00 | 52 | 1010.3 |
| 20260905204723 | 95 | 86 | 0.0 | 0.0 | 0.00 | 0.01 | 0.00 | 53 | 1010.3 |
| 20260905204224 | 95 | 86 | 1.7 | 1.7 | 0.00 | 0.01 | 0.00 | 54 | 1010.3 |
| 20260905204155 | 95 | 10 | 1.7 | 3.5 | 0.00 | 0.01 | 0.00 | 54 | 1010.3 |
| 20260905203722 | 95 | 45 | 2.6 | 4.3 | 0.00 | 0.01 | 0.00 | 53 | 1010.3 |
| 20260905203223 | 95 | 78 | 2.6 | 4.3 | 0.00 | 0.01 | 0.00 | 53 | 1010.3 |
| 20260905203157 | 95 | 45 | 1.7 | 3.5 | 0.00 | 0.01 | 0.00 | 55 | 1010.3 |
| 20260905202724 | 95 | 32 | 2.6 | 2.6 | 0.00 | 0.01 | 0.00 | 54 | 1010.6 |
| 20260905202222 | 95 | 76 | 2.6 | 5.2 | 0.00 | 0.01 | 0.00 | 53 | 1010.6 |
| 20260905202156 | 95 | 110 | 2.6 | 4.3 | 0.00 | 0.01 | 0.00 | 53 | 1010.6 |
| 20260905201723 | 95 | 346 | 2.6 | 2.6 | 0.00 | 0.01 | 0.00 | 54 | 1010.6 |
| 20260905201223 | 95 | 0 | 2.6 | 4.3 | 0.00 | 0.01 | 0.00 | 53 | 1010.7 |
| 20260905201155 | 95 | 13 | 2.6 | 5.2 | 0.00 | 0.01 | 0.00 | 53 | 1010.7 |
| 20260905200724 | 95 | 80 | 2.6 | 4.3 | 0.00 | 0.01 | 0.00 | 52 | 1010.7 |
| 20260905200223 | 95 | 18 | 1.7 | 3.5 | 0.00 | 0.01 | 0.00 | 52 | 1010.7 |
| 20260905200155 | 95 | 79 | 3.5 | 3.5 | 0.00 | 0.01 | 0.00 | 52 | 1010.7 |
| 20260905195723 | 95 | 49 | 3.5 | 5.2 | 0.00 | 0.01 | 0.00 | 55 | 1010.7 |
| 20260905195224 | 95 | 85 | 0.0 | 0.9 | 0.00 | 0.01 | 0.00 | 54 | 1010.7 |
| 20260905195157 | 95 | 48 | 1.7 | 2.6 | 0.00 | 0.01 | 0.00 | 57 | 1010.7 |
| 20260905194722 | 95 | 0 | 0.0 | 0.0 | 0.00 | 0.01 | 0.00 | 55 | 1010.7 |
| 20260905194222 | 94 | 23 | 2.6 | 2.6 | 0.00 | 0.01 | 0.00 | 58 | 1011.0 |
| 20260905194155 | 94 | 13 | 0.9 | 0.9 | 0.00 | 0.01 | 0.00 | 58 | 1011.0 |
| 20260905193723 | 94 | 48 | 1.7 | 3.5 | 0.00 | 0.01 | 0.00 | 58 | 1011.0 |
| 20260905193223 | 94 | 10 | 1.7 | 6.1 | 0.00 | 0.01 | 0.00 | 59 | 1011.0 |
| 20260905193156 | 94 | 64 | 6.1 | 6.1 | 0.00 | 0.01 | 0.00 | 59 | 1011.0 |
| 20260905192722 | 94 | 58 | 3.5 | 3.5 | 0.00 | 0.01 | 0.00 | 59 | 1011.2 |
| 20260905192223 | 94 | 37 | 0.0 | 4.3 | 0.00 | 0.01 | 0.00 | 60 | 1011.2 |
| 20260905192156 | 94 | 73 | 0.0 | 1.7 | 0.00 | 0.01 | 0.00 | 62 | 1011.2 |
| 20260905191723 | 94 | 113 | 0.9 | 1.7 | 0.00 | 0.01 | 0.00 | 62 | 1011.2 |
| 20260905191222 | 94 | 295 | 0.0 | 2.6 | 0.00 | 0.01 | 0.00 | 61 | 1011.4 |
| 20260905191157 | 94 | 330 | 2.6 | 2.6 | 0.00 | 0.01 | 0.00 | 61 | 1011.4 |
| 20260905190724 | 94 | 27 | 0.0 | 0.9 | 0.00 | 0.01 | 0.00 | 61 | 1011.4 |
| 20260905190222 | 93 | 44 | 0.0 | 2.6 | 0.00 | 0.01 | 0.00 | 60 | 1011.4 |
| 20260905190155 | 93 | 76 | 0.9 | 0.9 | 0.00 | 0.01 | 0.00 | 61 | 1011.4 |
| 20260905185723 | 93 | 85 | 2.6 | 3.5 | 0.00 | 0.01 | 0.00 | 63 | 1011.6 |
| 20260905185223 | 93 | 141 | 0.9 | 1.7 | 0.00 | 0.01 | 0.00 | 62 | 1011.6 |
| 20260905185156 | 93 | 112 | 0.0 | 1.7 | 0.00 | 0.01 | 0.00 | 60 | 1011.6 |
| 20260905184722 | 93 | 0 | 0.0 | 0.9 | 0.00 | 0.01 | 0.00 | 60 | 1011.6 |
| 20260905184223 | 93 | 102 | 2.6 | 5.2 | 0.00 | 0.01 | 0.00 | 60 | 1011.9 |
| 20260905184156 | 93 | 99 | 2.6 | 2.6 | 0.00 | 0.01 | 0.00 | 60 | 1011.9 |
| 20260905183723 | 93 | 8 | 0.0 | 2.6 | 0.00 | 0.01 | 0.00 | 61 | 1011.9 |
| 20260905183222 | 93 | 56 | 0.9 | 2.6 | 0.00 | 0.01 | 0.00 | 61 | 1011.9 |
| 20260905183157 | 93 | 54 | 0.9 | 2.6 | 0.00 | 0.01 | 0.00 | 61 | 1011.9 |
| 20260905182723 | 93 | 73 | 1.7 | 2.6 | 0.00 | 0.01 | 0.00 | 61 | 1012.3 |
| 20260905182223 | 93 | 0 | 0.0 | 1.7 | 0.00 | 0.01 | 0.00 | 62 | 1012.3 |
| 20260905182156 | 93 | 1 | 1.7 | 2.6 | 0.00 | 0.01 | 0.00 | 63 | 1012.3 |
| 20260905181722 | 93 | 357 | 2.6 | 5.2 | 0.00 | 0.01 | 0.00 | 60 | 1012.3 |
| 20260905181223 | 93 | 352 | 2.6 | 5.2 | 0.00 | 0.01 | 0.00 | 62 | 1012.4 |
| 20260905181156 | 93 | 1 | 1.7 | 1.7 | 0.00 | 0.01 | 0.00 | 62 | 1012.4 |
| 20260905180723 | 93 | 120 | 1.7 | 1.7 | 0.00 | 0.01 | 0.00 | 62 | 1012.4 |
| 20260905180222 | 93 | 25 | 0.9 | 2.6 | 0.00 | 0.01 | 0.00 | 61 | 1012.4 |
| 20260905180157 | 93 | 42 | 0.9 | 4.3 | 0.00 | 0.01 | 0.00 | 64 | 1012.4 |
| 20260905175724 | 93 | 309 | 0.0 | 4.3 | 0.00 | 0.01 | 0.00 | 61 | 1012.6 |
| 20260905175222 | 93 | 357 | 0.0 | 2.6 | 0.00 | 0.01 | 0.00 | 63 | 1012.6 |
| 20260905175157 | 93 | 78 | 2.6 | 3.5 | 0.00 | 0.01 | 0.00 | 62 | 1012.6 |
| 20260905174723 | 93 | 51 | 0.9 | 0.9 | 0.00 | 0.01 | 0.00 | 67 | 1012.6 |
| 20260905174224 | 93 | 133 | 1.7 | 1.7 | 0.00 | 0.01 | 0.00 | 63 | 1012.8 |
| 20260905174156 | 93 | 82 | 0.0 | 0.9 | 0.00 | 0.01 | 0.00 | 63 | 1012.8 |
| 20260905173722 | 93 | 359 | 2.6 | 3.5 | 0.00 | 0.01 | 0.00 | 62 | 1012.8 |
| 20260905173223 | 93 | 61 | 1.7 | 1.7 | 0.00 | 0.01 | 0.00 | 64 | 1012.8 |
| 20260905173158 | 93 | 251 | 1.7 | 3.5 | 0.00 | 0.01 | 0.00 | 64 | 1012.8 |
| 20260905172724 | 92 | 325 | 0.0 | 0.9 | 0.00 | 0.01 | 0.00 | 64 | 1012.9 |
| 20260905172222 | 92 | 301 | 0.9 | 2.6 | 0.00 | 0.01 | 0.00 | 64 | 1012.9 |
| 20260905172157 | 92 | 52 | 2.6 | 2.6 | 0.00 | 0.01 | 0.00 | 64 | 1012.9 |
| 20260905171724 | 92 | 109 | 1.7 | 1.7 | 0.00 | 0.01 | 0.00 | 65 | 1012.9 |
| 20260905171223 | 92 | 83 | 1.7 | 1.7 | 0.00 | 0.01 | 0.00 | 65 | 1013.0 |
| 20260905171156 | 92 | 83 | 1.7 | 1.7 | 0.00 | 0.01 | 0.00 | 65 | 1013.0 |
| 20260905170723 | 92 | 124 | 4.3 | 6.1 | 0.00 | 0.01 | 0.00 | 66 | 1013.0 |
| 20260905170224 | 92 | 0 | 1.7 | 3.5 | 0.00 | 0.01 | 0.00 | 68 | 1013.0 |
| 20260905170157 | 92 | 1 | 3.5 | 5.2 | 0.00 | 0.01 | 0.00 | 68 | 1013.0 |
| 20260905165723 | 91 | 304 | 2.6 | 3.5 | 0.00 | 0.01 | 0.00 | 68 | 1013.2 |
| 20260905165223 | 91 | 0 | 3.5 | 3.5 | 0.00 | 0.01 | 0.00 | 68 | 1013.2 |
| 20260905165156 | 91 | 352 | 3.5 | 4.3 | 0.00 | 0.01 | 0.00 | 68 | 1013.2 |
| 20260905164723 | 91 | 357 | 1.7 | 5.2 | 0.00 | 0.01 | 0.00 | 68 | 1013.2 |
| 20260905164224 | 91 | 357 | 2.6 | 3.5 | 0.00 | 0.01 | 0.00 | 70 | 1013.3 |
| 20260905164156 | 91 | 44 | 3.5 | 4.3 | 0.00 | 0.01 | 0.00 | 70 | 1013.3 |
| 20260905163722 | 91 | 24 | 2.6 | 3.5 | 0.00 | 0.01 | 0.00 | 69 | 1013.3 |
| 20260905163223 | 90 | 37 | 0.0 | 0.9 | 0.00 | 0.01 | 0.00 | 69 | 1013.3 |
| 20260905163156 | 90 | 359 | 0.9 | 3.5 | 0.00 | 0.01 | 0.00 | 69 | 1013.3 |
| 20260905162724 | 90 | 27 | 0.9 | 2.6 | 0.00 | 0.01 | 0.00 | 68 | 1013.4 |
| 20260905162223 | 90 | 352 | 0.9 | 5.2 | 0.00 | 0.01 | 0.00 | 69 | 1013.4 |
| 20260905162156 | 90 | 1 | 1.7 | 3.5 | 0.00 | 0.01 | 0.00 | 69 | 1013.4 |
| 20260905161724 | 90 | 0 | 5.2 | 5.2 | 0.00 | 0.01 | 0.00 | 69 | 1013.4 |
| 20260905161222 | 90 | 316 | 0.0 | 2.6 | 0.00 | 0.01 | 0.00 | 69 | 1013.4 |
| 20260905161156 | 90 | 335 | 2.6 | 4.3 | 0.00 | 0.01 | 0.00 | 69 | 1013.4 |
| 20260905160723 | 90 | 10 | 1.7 | 4.3 | 0.00 | 0.01 | 0.00 | 68 | 1013.4 |
| 20260905160224 | 90 | 271 | 0.0 | 1.7 | 0.00 | 0.01 | 0.00 | 70 | 1013.4 |
| 20260905160157 | 90 | 357 | 0.9 | 2.6 | 0.00 | 0.01 | 0.00 | 71 | 1013.4 |
| 20260905155723 | 89 | 1 | 0.0 | 2.6 | 0.00 | 0.01 | 0.00 | 70 | 1013.4 |
| 20260905155224 | 89 | 352 | 3.5 | 3.5 | 0.00 | 0.01 | 0.00 | 73 | 1013.4 |
| 20260905155157 | 89 | 16 | 1.7 | 2.6 | 0.00 | 0.01 | 0.00 | 73 | 1013.4 |
| 20260905154723 | 89 | 51 | 0.0 | 0.9 | 0.00 | 0.01 | 0.00 | 74 | 1013.4 |
| 20260905154223 | 89 | 359 | 0.9 | 2.6 | 0.00 | 0.01 | 0.00 | 74 | 1013.6 |
| 20260905154157 | 89 | 319 | 0.9 | 1.7 | 0.00 | 0.01 | 0.00 | 74 | 1013.6 |
| 20260905153724 | 88 | 342 | 4.3 | 4.3 | 0.00 | 0.01 | 0.00 | 74 | 1013.6 |
| 20260905153223 | 88 | 315 | 0.0 | 1.7 | 0.00 | 0.01 | 0.00 | 75 | 1013.6 |
| 20260905153156 | 88 | 320 | 1.7 | 1.7 | 0.00 | 0.01 | 0.00 | 75 | 1013.6 |
| 20260905152722 | 88 | 343 | 2.6 | 2.6 | 0.00 | 0.01 | 0.00 | 75 | 1013.6 |
| 20260905152223 | 88 | 302 | 0.0 | 1.7 | 0.00 | 0.01 | 0.00 | 75 | 1013.6 |
| 20260905152155 | 87 | 292 | 1.7 | 2.6 | 0.00 | 0.01 | 0.00 | 75 | 1013.6 |
| 20260905151724 | 87 | 350 | 2.6 | 2.6 | 0.00 | 0.01 | 0.00 | 75 | 1013.6 |
| 20260905151222 | 87 | 340 | 2.6 | 4.3 | 0.00 | 0.01 | 0.00 | 76 | 1013.5 |
| 20260905151155 | 87 | 342 | 2.6 | 2.6 | 0.00 | 0.01 | 0.00 | 76 | 1013.5 |
| 20260905150723 | 87 | 0 | 1.7 | 2.6 | 0.00 | 0.01 | 0.00 | 77 | 1013.5 |
| 20260905150224 | 87 | 356 | 0.9 | 0.9 | 0.00 | 0.01 | 0.00 | 76 | 1013.5 |
| 20260905150200 | 87 | 326 | 0.0 | 1.7 | 0.00 | 0.01 | 0.00 | 76 | 1013.5 |
| 20260905145722 | 87 | 352 | 1.7 | 2.6 | 0.00 | 0.01 | 0.00 | 79 | 1013.6 |
| 20260905145223 | 86 | 42 | 0.9 | 0.9 | 0.00 | 0.01 | 0.00 | 78 | 1013.6 |
| 20260905145156 | 86 | 329 | 0.0 | 0.9 | 0.00 | 0.01 | 0.00 | 78 | 1013.6 |